Roopville, Georgia
Current Conditions -  °F | °C
As of 6:55 PM on Wednesday 22 Oct 2014 (Local Time) from KCTJ Reporting Station
Clear Clear  
Wind Chill: 59°   Ceiling: Unl
Heat Index: 59°   Visibility: 10mi
Dew Point: 43°   Wind: 8mph
Humidity: 55%   Direction: 360°N
Pressure: 30.1"   Gusts: NA
Location:  33.46°N, 85.13°W
Report Text: KCTJ 222255Z AUTO 36007KT 10SM CLR 15/06 A3010 RMK AO2
Loading
Personal Weather Stations






























Interactive Weather Map New forecast layout! Learn more

10-Day Weather Forecast

Advertisements
Track Severe Weather on mobile